createdAt,value
2019-03-21T00:03:56.492Z,14.57
2019-03-21T00:08:59.279Z,14.70
2019-03-21T00:14:08.514Z,14.73
2019-03-21T00:19:19.106Z,14.80
2019-03-21T00:24:26.287Z,14.70
2019-03-21T00:29:28.789Z,14.47
2019-03-21T00:34:31.400Z,14.47
2019-03-21T00:39:34.043Z,13.13
2019-03-21T00:44:36.911Z,14.13
2019-03-21T00:49:39.505Z,14.87
2019-03-21T00:54:42.362Z,14.13
2019-03-21T00:59:44.948Z,13.60
2019-03-21T01:04:47.612Z,13.97
2019-03-21T01:09:54.448Z,13.53
2019-03-21T01:15:05.636Z,13.00
2019-03-21T01:20:12.783Z,13.20
2019-03-21T01:25:30.223Z,13.43
2019-03-21T01:30:37.487Z,12.73
2019-03-21T01:35:46.673Z,14.10
2019-03-21T01:40:54.983Z,13.63
2019-03-21T01:45:57.605Z,13.53
2019-03-21T01:51:00.202Z,13.33
2019-03-21T01:56:02.932Z,13.67
2019-03-21T02:01:05.613Z,13.67
2019-03-21T02:06:08.223Z,12.77
2019-03-21T02:11:10.872Z,12.33
2019-03-21T02:16:13.670Z,12.20
2019-03-21T02:21:16.285Z,13.23
2019-03-21T02:26:18.962Z,12.70
2019-03-21T02:31:21.727Z,12.93
2019-03-21T02:36:27.119Z,12.43
2019-03-21T02:41:29.747Z,13.23
2019-03-21T02:46:34.115Z,13.60
2019-03-21T02:51:36.728Z,11.27
2019-03-21T02:56:39.434Z,12.80
2019-03-21T03:01:42.038Z,13.00
2019-03-21T03:06:44.771Z,13.87
2019-03-21T03:11:47.438Z,12.47
2019-03-21T03:16:50.089Z,12.90
2019-03-21T03:21:52.698Z,13.30
2019-03-21T03:27:01.427Z,12.43
2019-03-21T03:32:04.071Z,12.83
2019-03-21T03:37:06.757Z,12.60
2019-03-21T03:42:09.455Z,12.60
2019-03-21T03:47:12.024Z,12.30
2019-03-21T03:52:14.740Z,12.47
2019-03-21T03:57:17.383Z,11.97
2019-03-21T04:02:19.953Z,12.73
2019-03-21T04:08:10.860Z,13.40
2019-03-21T04:26:03.095Z,12.57
2019-03-21T04:31:08.472Z,12.23
2019-03-21T04:36:20.161Z,12.40
2019-03-21T04:41:29.848Z,12.27
2019-03-21T04:46:32.573Z,12.40
2019-03-21T04:51:35.223Z,10.93
2019-03-21T04:56:37.828Z,12.93
2019-03-21T05:01:40.503Z,11.57
2019-03-21T05:06:43.214Z,12.30
2019-03-21T05:11:56.739Z,11.70
2019-03-21T05:16:59.353Z,10.17
2019-03-21T05:22:03.499Z,11.83
2019-03-21T05:27:06.205Z,11.40
2019-03-21T05:32:08.813Z,11.67
2019-03-21T05:37:11.473Z,10.63
2019-03-21T05:42:17.689Z,11.03
2019-03-21T05:47:20.320Z,10.73
2019-03-21T05:52:26.823Z,10.53
2019-03-21T05:57:31.767Z,10.80
2019-03-21T06:02:34.438Z,10.50
2019-03-21T06:07:47.173Z,10.33
2019-03-21T06:12:49.864Z,10.50
2019-03-21T06:18:31.321Z,10.23
2019-03-21T06:24:03.049Z,10.30
2019-03-21T06:29:05.763Z,9.93
2019-03-21T06:34:08.451Z,10.33
2019-03-21T06:39:12.696Z,9.70
2019-03-21T06:44:17.202Z,8.80
2019-03-21T06:49:19.705Z,11.00
2019-03-21T06:54:22.310Z,9.90
2019-03-21T06:59:24.977Z,9.47
2019-03-21T07:04:27.635Z,8.50
2019-03-21T07:09:30.249Z,9.80
2019-03-21T07:14:32.930Z,10.13
2019-03-21T07:19:35.625Z,8.47
2019-03-21T07:24:38.223Z,9.17
2019-03-21T07:29:40.798Z,8.57
2019-03-21T07:34:43.546Z,8.83
2019-03-21T07:39:46.194Z,9.13
2019-03-21T07:44:49.018Z,9.67
2019-03-21T07:49:51.611Z,10.00
2019-03-21T07:54:54.353Z,10.40
2019-03-21T07:59:56.989Z,10.23
2019-03-21T08:04:59.634Z,10.63
2019-03-21T08:10:02.280Z,12.33
2019-03-21T08:15:05.993Z,9.63
2019-03-21T08:20:12.085Z,9.77
2019-03-21T08:25:14.982Z,10.77
2019-03-21T08:30:31.681Z,9.70
2019-03-21T08:35:35.643Z,9.00
2019-03-21T08:40:38.268Z,8.73
2019-03-21T08:45:40.939Z,8.70
2019-03-21T08:50:43.548Z,8.60
2019-03-21T08:55:46.127Z,8.30
2019-03-21T09:00:54.074Z,8.57
2019-03-21T09:06:03.705Z,8.10
2019-03-21T09:11:08.176Z,8.50
2019-03-21T09:16:11.101Z,9.20
2019-03-21T09:21:19.506Z,8.17
2019-03-21T09:26:18.382Z,7.67
2019-03-21T09:31:20.995Z,9.33
2019-03-21T09:36:23.676Z,10.10
2019-03-21T09:41:26.368Z,9.63
2019-03-21T09:46:29.949Z,9.77
2019-03-21T09:51:32.625Z,9.40
2019-03-21T09:56:35.332Z,8.90
2019-03-21T10:01:41.466Z,8.90
2019-03-21T10:06:47.866Z,9.97
2019-03-21T10:11:53.364Z,10.63
2019-03-21T10:16:56.105Z,11.30
2019-03-21T10:21:59.007Z,10.60
2019-03-21T10:27:04.279Z,9.77
2019-03-21T10:32:14.246Z,9.23
2019-03-21T10:37:13.393Z,10.63
2019-03-21T10:42:23.186Z,9.70
2019-03-21T10:47:30.816Z,9.67
2019-03-21T10:52:44.240Z,8.87
2019-03-21T10:58:03.878Z,8.43
2019-03-21T11:03:07.720Z,10.80
2019-03-21T11:08:10.457Z,9.63
2019-03-21T11:13:15.771Z,8.50
2019-03-21T11:18:18.385Z,9.77
2019-03-21T11:23:32.440Z,10.40
2019-03-21T11:28:35.061Z,10.27
2019-03-21T11:33:37.783Z,10.50
2019-03-21T11:38:40.507Z,9.87
2019-03-21T11:43:43.089Z,10.03
2019-03-21T11:48:45.678Z,9.67
2019-03-21T11:53:55.346Z,11.47
2019-03-21T11:58:59.918Z,11.27
2019-03-21T12:04:02.539Z,11.27
2019-03-21T12:09:06.499Z,11.50
2019-03-21T12:14:09.285Z,10.90
2019-03-21T12:19:11.960Z,13.13
2019-03-21T12:24:14.407Z,11.70
2019-03-21T12:29:17.006Z,12.10
2019-03-21T12:34:21.910Z,11.17
2019-03-21T12:39:29.010Z,11.53
2019-03-21T12:44:32.587Z,12.33
2019-03-21T12:49:35.452Z,12.43
2019-03-21T12:54:38.204Z,11.70
2019-03-21T12:59:42.589Z,11.53
2019-03-21T13:04:45.764Z,11.67
2019-03-21T13:09:50.234Z,11.83
2019-03-21T13:14:58.967Z,10.40
2019-03-21T13:20:05.169Z,11.67
2019-03-21T13:25:08.552Z,12.53
2019-03-21T13:30:11.802Z,12.40
2019-03-21T13:35:14.393Z,15.33
2019-03-21T13:40:17.124Z,12.57
2019-03-21T13:45:19.707Z,13.17
2019-03-21T13:50:30.379Z,14.70
2019-03-21T13:55:38.594Z,15.03
2019-03-21T14:00:44.470Z,12.10
2019-03-21T14:05:52.118Z,13.27
2019-03-21T14:11:04.083Z,13.00
2019-03-21T14:16:13.076Z,15.10
2019-03-21T14:21:24.957Z,13.90
2019-03-21T14:26:28.054Z,13.60
2019-03-21T14:31:45.437Z,13.97
2019-03-21T14:36:48.032Z,13.13
2019-03-21T14:41:50.697Z,13.47
2019-03-21T14:46:57.224Z,13.90
2019-03-21T14:52:02.716Z,13.33
2019-03-21T14:57:05.313Z,14.60
2019-03-21T15:02:07.931Z,14.43
2019-03-21T15:07:13.490Z,14.30
2019-03-21T15:12:16.579Z,13.87
2019-03-21T15:17:25.813Z,14.17
2019-03-21T15:22:28.489Z,14.83
2019-03-21T15:27:36.047Z,13.47
2019-03-21T15:32:56.258Z,13.70
2019-03-21T15:38:01.184Z,14.13
2019-03-21T15:43:03.917Z,14.93
2019-03-21T15:48:06.545Z,13.70
2019-03-21T15:53:14.392Z,15.40
2019-03-21T15:58:19.822Z,15.03
2019-03-21T16:03:27.807Z,13.83
2019-03-21T16:08:32.521Z,15.97
2019-03-21T16:13:36.110Z,14.50
2019-03-21T16:18:38.845Z,12.27
2019-03-21T16:23:45.438Z,14.60
2019-03-21T16:28:48.206Z,15.00
2019-03-21T16:33:50.897Z,14.70
2019-03-21T16:38:53.497Z,14.30
2019-03-21T16:43:57.904Z,13.23
2019-03-21T16:49:00.512Z,15.10
2019-03-21T16:54:03.127Z,14.77
2019-03-21T16:59:10.357Z,15.93
2019-03-21T17:04:14.088Z,13.93
2019-03-21T17:09:16.818Z,14.63
2019-03-21T17:14:19.426Z,14.20
2019-03-21T17:19:22.114Z,13.03
2019-03-21T17:24:29.681Z,13.43
2019-03-21T17:29:31.773Z,15.13
2019-03-21T17:34:34.473Z,15.27
2019-03-21T17:39:39.845Z,13.57
2019-03-21T17:44:43.295Z,13.93
2019-03-21T17:49:45.928Z,15.47
2019-03-21T17:54:48.535Z,14.93
2019-03-21T17:59:51.200Z,14.27
2019-03-21T18:04:56.690Z,15.00
2019-03-21T18:09:59.187Z,15.37
2019-03-21T18:15:01.883Z,19.70
2019-03-21T18:20:05.191Z,20.47
2019-03-21T18:25:07.845Z,18.43
2019-03-21T18:30:10.777Z,20.87
2019-03-21T18:35:14.771Z,21.10
2019-03-21T18:40:17.442Z,20.20
2019-03-21T18:45:20.112Z,20.40
2019-03-21T18:50:24.030Z,19.07
2019-03-21T18:55:26.667Z,18.50
2019-03-21T19:00:29.239Z,30.63
2019-03-21T19:05:33.471Z,22.87
2019-03-21T19:10:36.428Z,21.23
2019-03-21T19:15:39.342Z,21.10
2019-03-21T19:20:41.975Z,18.80
2019-03-21T19:25:44.572Z,17.00
2019-03-21T19:30:47.327Z,19.87
2019-03-21T19:35:49.996Z,18.30
2019-03-21T19:40:52.614Z,18.17
2019-03-21T19:45:55.268Z,17.90
2019-03-21T19:50:57.972Z,18.07
2019-03-21T19:56:08.392Z,18.17
2019-03-21T20:01:05.110Z,18.60
2019-03-21T20:06:07.745Z,18.43
2019-03-21T20:11:10.442Z,19.00
2019-03-21T20:16:14.896Z,20.27
2019-03-21T20:21:17.597Z,19.27
2019-03-21T20:26:20.193Z,19.67
2019-03-21T20:31:22.808Z,19.20
2019-03-21T20:36:25.431Z,19.23
2019-03-21T20:41:28.093Z,19.17
2019-03-21T20:46:30.690Z,19.80
2019-03-21T20:51:33.450Z,20.83
2019-03-21T20:56:36.147Z,19.60
2019-03-21T21:01:41.120Z,21.23
2019-03-21T21:06:43.695Z,20.77
2019-03-21T21:11:52.176Z,20.87
2019-03-21T21:16:54.843Z,20.73
2019-03-21T21:21:57.774Z,22.53
2019-03-21T21:27:00.502Z,20.80
2019-03-21T21:32:03.211Z,21.10
2019-03-21T21:37:08.774Z,21.43
2019-03-21T21:42:13.613Z,20.03
2019-03-21T21:47:21.892Z,21.93
2019-03-21T21:52:26.377Z,21.10
2019-03-21T21:57:31.865Z,21.67
2019-03-21T22:02:34.575Z,22.13
2019-03-21T22:07:37.366Z,20.23
2019-03-21T22:12:40.141Z,19.27
2019-03-21T22:17:42.824Z,21.80
2019-03-21T22:22:48.938Z,19.83
2019-03-21T22:27:58.678Z,18.60
2019-03-21T22:33:01.580Z,19.17
2019-03-21T22:38:04.141Z,18.77
2019-03-21T22:43:06.832Z,19.63
2019-03-21T22:48:09.823Z,21.13
2019-03-21T22:53:12.484Z,19.30
2019-03-21T22:58:31.437Z,19.73
2019-03-21T23:03:25.174Z,20.47
2019-03-21T23:08:33.234Z,18.47
2019-03-21T23:13:46.901Z,19.10
2019-03-21T23:18:57.128Z,18.80
2019-03-21T23:23:59.823Z,17.93
2019-03-21T23:29:03.914Z,17.20
2019-03-21T23:34:06.687Z,17.13
2019-03-21T23:39:09.278Z,16.37
2019-03-21T23:44:12.018Z,17.70
2019-03-21T23:49:19.363Z,17.80
2019-03-21T23:54:22.308Z,15.43
2019-03-21T23:59:27.063Z,17.07
